Terminal Aerodrome Forecast
Issued by NWS Shreveport, LA

Home | Current Version | Previous Version | Text Only | Print | Product List | Glossary On
Versions: 1 2 3 4 5 6 7 8 9 10 11 12 13 14 15
000
FTUS44 KSHV 311100
TAFTYR
TAF
KTYR 311138Z 3112/0112 13009KT P6SM OVC150
     FM312100 12008KT P6SM OVC050
     FM010300 15011KT 3SM -RA BR OVC025
     FM010600 17012KT 3SM -RA BR OVC009=

USA.gov is the U.S. government's official web portal to all federal, state and local government web resources and services.